logo
Search for airport 
image banner adimage banner adimage banner ad
image banner ad

EDGS - Siegerland

Located in Siegen, Germany

ICAO - EDGS, IATA - SGE

Data provided by Airmate  

General information

Coordinates: N50°42'28" E8°4'59"
Elevation is 1966 feet MSL.
Magnetic variation is 2.3000° East
View others Airports in North Rhine-Westphalia

Operational data

Special qualification required
Current time UTC:
Current local time:
Weather
METAR: EDGS 251620Z 25007KT 9999 FEW044 21/11 Q1015
TAF: TAF EDGS 251400Z 2515/2524 21005KT 9999 FEW040
View NOTAMs / SUP AIP / TFR affecting this airport [VIEW]
Communications frequencies: [VIEW]

Runways:

RWY identifierQFULength (ft)Width (ft)SurfaceLDA (ft)
0440°164098GRASS1640
22220°164098GRASS1640
13128°531598ASPH5315
31308°531598ASPH5315
13G128°196998GRASS1969
31G308°196998GRASS1969
13L128°196998GRS
31R308°196998GRS

Airport contact information

Address: Siegen Germany

Handlers

Siegerland Flughafen Gmbh

Siegerland Flughafen Gmbh

Satellite view of EDGS